sensor_id;sensor_type;location;lat;lon;timestamp;P1;durP1;ratioP1;P2;durP2;ratioP2
71734;SDS011;59577;52.122;5.406;2023-07-13T00:01:13;3.55;;;0.77;;
71734;SDS011;59577;52.122;5.406;2023-07-13T00:03:55;8.67;;;1.00;;
71734;SDS011;59577;52.122;5.406;2023-07-13T00:06:32;5.57;;;0.73;;
71734;SDS011;59577;52.122;5.406;2023-07-13T00:09:01;8.93;;;1.08;;
71734;SDS011;59577;52.122;5.406;2023-07-13T00:11:29;3.67;;;0.70;;
71734;SDS011;59577;52.122;5.406;2023-07-13T00:13:57;5.18;;;0.88;;
71734;SDS011;59577;52.122;5.406;2023-07-13T00:16:24;5.87;;;0.60;;
71734;SDS011;59577;52.122;5.406;2023-07-13T00:18:52;3.60;;;0.70;;
71734;SDS011;59577;52.122;5.406;2023-07-13T00:21:19;5.63;;;0.63;;
71734;SDS011;59577;52.122;5.406;2023-07-13T00:23:48;3.63;;;0.52;;
71734;SDS011;59577;52.122;5.406;2023-07-13T00:26:15;4.72;;;0.80;;
71734;SDS011;59577;52.122;5.406;2023-07-13T00:28:47;4.50;;;0.70;;
71734;SDS011;59577;52.122;5.406;2023-07-13T00:31:14;7.22;;;0.82;;
71734;SDS011;59577;52.122;5.406;2023-07-13T00:33:42;4.53;;;0.60;;
71734;SDS011;59577;52.122;5.406;2023-07-13T00:36:10;4.55;;;0.90;;
71734;SDS011;59577;52.122;5.406;2023-07-13T00:38:39;5.13;;;0.98;;
71734;SDS011;59577;52.122;5.406;2023-07-13T00:41:07;2.47;;;0.40;;
71734;SDS011;59577;52.122;5.406;2023-07-13T00:43:42;4.28;;;0.82;;
71734;SDS011;59577;52.122;5.406;2023-07-13T00:46:29;4.85;;;0.55;;
71734;SDS011;59577;52.122;5.406;2023-07-13T00:49:01;4.15;;;0.50;;
71734;SDS011;59577;52.122;5.406;2023-07-13T00:51:39;4.43;;;0.43;;
71734;SDS011;59577;52.122;5.406;2023-07-13T00:54:18;3.03;;;0.52;;
71734;SDS011;59577;52.122;5.406;2023-07-13T00:56:57;6.55;;;0.70;;
71734;SDS011;59577;52.122;5.406;2023-07-13T00:59:28;3.10;;;0.60;;
71734;SDS011;59577;52.122;5.406;2023-07-13T01:01:56;7.32;;;0.50;;
71734;SDS011;59577;52.122;5.406;2023-07-13T01:04:24;7.45;;;1.15;;
71734;SDS011;59577;52.122;5.406;2023-07-13T01:06:52;5.60;;;0.77;;
71734;SDS011;59577;52.122;5.406;2023-07-13T01:09:20;3.22;;;0.98;;
71734;SDS011;59577;52.122;5.406;2023-07-13T01:11:53;4.82;;;0.80;;
71734;SDS011;59577;52.122;5.406;2023-07-13T01:14:34;3.20;;;0.60;;
71734;SDS011;59577;52.122;5.406;2023-07-13T01:17:09;5.88;;;0.90;;
71734;SDS011;59577;52.122;5.406;2023-07-13T01:19:39;5.67;;;0.50;;
71734;SDS011;59577;52.122;5.406;2023-07-13T01:22:10;5.93;;;0.60;;
71734;SDS011;59577;52.122;5.406;2023-07-13T01:24:45;3.58;;;0.50;;
71734;SDS011;59577;52.122;5.406;2023-07-13T01:27:16;3.33;;;0.77;;
71734;SDS011;59577;52.122;5.406;2023-07-13T01:29:52;5.15;;;0.50;;
71734;SDS011;59577;52.122;5.406;2023-07-13T01:32:25;4.93;;;0.55;;
71734;SDS011;59577;52.122;5.406;2023-07-13T01:34:59;6.53;;;0.60;;
71734;SDS011;59577;52.122;5.406;2023-07-13T01:37:26;4.70;;;0.60;;
71734;SDS011;59577;52.122;5.406;2023-07-13T01:39:54;6.75;;;0.70;;
71734;SDS011;59577;52.122;5.406;2023-07-13T01:42:21;5.20;;;0.70;;
71734;SDS011;59577;52.122;5.406;2023-07-13T01:44:49;2.73;;;0.60;;
71734;SDS011;59577;52.122;5.406;2023-07-13T01:47:17;8.10;;;0.70;;
71734;SDS011;59577;52.122;5.406;2023-07-13T01:49:46;4.45;;;0.70;;
71734;SDS011;59577;52.122;5.406;2023-07-13T01:52:17;6.85;;;1.08;;
71734;SDS011;59577;52.122;5.406;2023-07-13T01:54:45;7.43;;;0.80;;
71734;SDS011;59577;52.122;5.406;2023-07-13T01:57:15;3.63;;;0.60;;
71734;SDS011;59577;52.122;5.406;2023-07-13T01:59:42;3.42;;;0.65;;
71734;SDS011;59577;52.122;5.406;2023-07-13T02:02:09;5.18;;;0.70;;
71734;SDS011;59577;52.122;5.406;2023-07-13T02:04:44;5.78;;;0.60;;
71734;SDS011;59577;52.122;5.406;2023-07-13T02:07:21;3.42;;;0.77;;
71734;SDS011;59577;52.122;5.406;2023-07-13T02:09:54;1.60;;;0.60;;
71734;SDS011;59577;52.122;5.406;2023-07-13T02:12:22;3.13;;;0.60;;
71734;SDS011;59577;52.122;5.406;2023-07-13T02:14:51;2.70;;;0.60;;
71734;SDS011;59577;52.122;5.406;2023-07-13T02:17:18;5.97;;;0.65;;
71734;SDS011;59577;52.122;5.406;2023-07-13T02:19:46;5.47;;;0.90;;
71734;SDS011;59577;52.122;5.406;2023-07-13T02:22:13;3.95;;;0.63;;
71734;SDS011;59577;52.122;5.406;2023-07-13T02:24:41;3.00;;;0.68;;
71734;SDS011;59577;52.122;5.406;2023-07-13T02:27:08;2.42;;;0.60;;
71734;SDS011;59577;52.122;5.406;2023-07-13T02:29:36;6.28;;;0.93;;
71734;SDS011;59577;52.122;5.406;2023-07-13T02:32:04;6.88;;;0.70;;
71734;SDS011;59577;52.122;5.406;2023-07-13T02:34:33;2.43;;;0.63;;
71734;SDS011;59577;52.122;5.406;2023-07-13T02:37:00;4.10;;;0.95;;
71734;SDS011;59577;52.122;5.406;2023-07-13T02:39:29;3.42;;;0.70;;
71734;SDS011;59577;52.122;5.406;2023-07-13T02:41:59;6.03;;;0.80;;
71734;SDS011;59577;52.122;5.406;2023-07-13T02:44:26;3.35;;;0.65;;
71734;SDS011;59577;52.122;5.406;2023-07-13T02:46:53;2.87;;;0.70;;
71734;SDS011;59577;52.122;5.406;2023-07-13T02:49:20;5.70;;;0.70;;
71734;SDS011;59577;52.122;5.406;2023-07-13T02:51:47;6.22;;;0.70;;
71734;SDS011;59577;52.122;5.406;2023-07-13T02:54:13;5.00;;;0.90;;
71734;SDS011;59577;52.122;5.406;2023-07-13T02:56:40;2.05;;;0.70;;
71734;SDS011;59577;52.122;5.406;2023-07-13T02:59:07;3.63;;;1.70;;
71734;SDS011;59577;52.122;5.406;2023-07-13T03:01:34;3.38;;;0.70;;
71734;SDS011;59577;52.122;5.406;2023-07-13T03:04:01;2.42;;;0.82;;
71734;SDS011;59577;52.122;5.406;2023-07-13T03:06:30;5.03;;;1.10;;
71734;SDS011;59577;52.122;5.406;2023-07-13T03:08:57;4.53;;;0.88;;
71734;SDS011;59577;52.122;5.406;2023-07-13T03:11:24;8.23;;;1.60;;
71734;SDS011;59577;52.122;5.406;2023-07-13T03:13:51;4.45;;;0.95;;
71734;SDS011;59577;52.122;5.406;2023-07-13T03:16:18;5.32;;;1.00;;
71734;SDS011;59577;52.122;5.406;2023-07-13T03:18:45;4.60;;;1.20;;
71734;SDS011;59577;52.122;5.406;2023-07-13T03:21:12;5.15;;;1.00;;
71734;SDS011;59577;52.122;5.406;2023-07-13T03:23:39;4.03;;;1.33;;
71734;SDS011;59577;52.122;5.406;2023-07-13T03:26:07;8.20;;;1.38;;
71734;SDS011;59577;52.122;5.406;2023-07-13T03:28:37;5.95;;;1.10;;
71734;SDS011;59577;52.122;5.406;2023-07-13T03:31:04;4.75;;;1.17;;
71734;SDS011;59577;52.122;5.406;2023-07-13T03:33:33;4.50;;;1.02;;
71734;SDS011;59577;52.122;5.406;2023-07-13T03:36:00;4.73;;;1.07;;
71734;SDS011;59577;52.122;5.406;2023-07-13T03:38:27;5.57;;;1.10;;
71734;SDS011;59577;52.122;5.406;2023-07-13T03:40:53;5.15;;;1.45;;
71734;SDS011;59577;52.122;5.406;2023-07-13T03:43:20;5.25;;;1.20;;
71734;SDS011;59577;52.122;5.406;2023-07-13T03:45:47;4.13;;;1.00;;
71734;SDS011;59577;52.122;5.406;2023-07-13T03:48:14;5.80;;;1.10;;
71734;SDS011;59577;52.122;5.406;2023-07-13T03:50:41;8.50;;;1.08;;
71734;SDS011;59577;52.122;5.406;2023-07-13T03:53:07;7.13;;;1.30;;
71734;SDS011;59577;52.122;5.406;2023-07-13T03:55:34;7.95;;;1.63;;
71734;SDS011;59577;52.122;5.406;2023-07-13T03:58:47;7.13;;;1.73;;
71734;SDS011;59577;52.122;5.406;2023-07-13T04:00:53;6.93;;;1.50;;
71734;SDS011;59577;52.122;5.406;2023-07-13T04:03:21;8.88;;;1.38;;
71734;SDS011;59577;52.122;5.406;2023-07-13T04:05:47;5.82;;;1.17;;
71734;SDS011;59577;52.122;5.406;2023-07-13T04:08:14;6.75;;;1.13;;
71734;SDS011;59577;52.122;5.406;2023-07-13T04:10:41;6.45;;;1.30;;
71734;SDS011;59577;52.122;5.406;2023-07-13T04:13:08;6.53;;;1.10;;
71734;SDS011;59577;52.122;5.406;2023-07-13T04:15:34;9.05;;;1.50;;
71734;SDS011;59577;52.122;5.406;2023-07-13T04:18:01;7.90;;;1.50;;
71734;SDS011;59577;52.122;5.406;2023-07-13T04:20:29;6.88;;;1.30;;
71734;SDS011;59577;52.122;5.406;2023-07-13T04:22:56;6.95;;;1.30;;
71734;SDS011;59577;52.122;5.406;2023-07-13T04:25:23;6.00;;;1.50;;
71734;SDS011;59577;52.122;5.406;2023-07-13T04:27:50;5.65;;;1.60;;
71734;SDS011;59577;52.122;5.406;2023-07-13T04:30:18;4.25;;;1.30;;
71734;SDS011;59577;52.122;5.406;2023-07-13T04:32:44;8.05;;;1.83;;
71734;SDS011;59577;52.122;5.406;2023-07-13T04:35:11;9.85;;;1.45;;
71734;SDS011;59577;52.122;5.406;2023-07-13T04:37:39;6.10;;;1.92;;
71734;SDS011;59577;52.122;5.406;2023-07-13T04:40:06;6.07;;;1.73;;
71734;SDS011;59577;52.122;5.406;2023-07-13T04:42:38;15.68;;;1.98;;
71734;SDS011;59577;52.122;5.406;2023-07-13T04:45:06;7.78;;;1.77;;
71734;SDS011;59577;52.122;5.406;2023-07-13T04:47:33;9.00;;;1.58;;
71734;SDS011;59577;52.122;5.406;2023-07-13T04:50:00;7.47;;;1.33;;
71734;SDS011;59577;52.122;5.406;2023-07-13T04:52:27;6.97;;;1.50;;
71734;SDS011;59577;52.122;5.406;2023-07-13T04:54:53;7.25;;;1.77;;
71734;SDS011;59577;52.122;5.406;2023-07-13T04:57:20;12.25;;;2.20;;
71734;SDS011;59577;52.122;5.406;2023-07-13T04:59:47;8.05;;;1.90;;
71734;SDS011;59577;52.122;5.406;2023-07-13T05:02:13;7.77;;;1.70;;
71734;SDS011;59577;52.122;5.406;2023-07-13T05:04:40;7.72;;;1.70;;
71734;SDS011;59577;52.122;5.406;2023-07-13T05:07:07;7.68;;;1.75;;
71734;SDS011;59577;52.122;5.406;2023-07-13T05:09:33;12.32;;;2.08;;
71734;SDS011;59577;52.122;5.406;2023-07-13T05:12:00;6.53;;;1.58;;
71734;SDS011;59577;52.122;5.406;2023-07-13T05:14:27;7.77;;;1.80;;
71734;SDS011;59577;52.122;5.406;2023-07-13T05:16:54;6.95;;;1.65;;
71734;SDS011;59577;52.122;5.406;2023-07-13T05:19:20;9.15;;;2.20;;
71734;SDS011;59577;52.122;5.406;2023-07-13T05:21:47;8.30;;;1.95;;
71734;SDS011;59577;52.122;5.406;2023-07-13T05:24:14;8.70;;;2.10;;
71734;SDS011;59577;52.122;5.406;2023-07-13T05:26:50;10.77;;;1.80;;
71734;SDS011;59577;52.122;5.406;2023-07-13T05:29:18;12.60;;;1.90;;
71734;SDS011;59577;52.122;5.406;2023-07-13T05:31:44;6.70;;;1.67;;
71734;SDS011;59577;52.122;5.406;2023-07-13T05:34:11;7.57;;;1.95;;
71734;SDS011;59577;52.122;5.406;2023-07-13T05:36:38;12.77;;;2.17;;
71734;SDS011;59577;52.122;5.406;2023-07-13T05:39:05;15.88;;;3.28;;
71734;SDS011;59577;52.122;5.406;2023-07-13T05:41:31;13.20;;;2.95;;
71734;SDS011;59577;52.122;5.406;2023-07-13T05:43:58;11.15;;;3.60;;
71734;SDS011;59577;52.122;5.406;2023-07-13T05:46:25;15.68;;;3.67;;
71734;SDS011;59577;52.122;5.406;2023-07-13T05:48:52;15.05;;;3.75;;
71734;SDS011;59577;52.122;5.406;2023-07-13T05:51:19;13.67;;;3.47;;
71734;SDS011;59577;52.122;5.406;2023-07-13T05:53:45;10.57;;;3.20;;
71734;SDS011;59577;52.122;5.406;2023-07-13T05:56:12;11.43;;;3.33;;
71734;SDS011;59577;52.122;5.406;2023-07-13T05:58:38;13.77;;;4.20;;
71734;SDS011;59577;52.122;5.406;2023-07-13T06:01:06;9.57;;;3.47;;
71734;SDS011;59577;52.122;5.406;2023-07-13T06:03:37;11.13;;;3.50;;
71734;SDS011;59577;52.122;5.406;2023-07-13T06:06:07;10.80;;;3.83;;
71734;SDS011;59577;52.122;5.406;2023-07-13T06:08:36;14.02;;;4.35;;
71734;SDS011;59577;52.122;5.406;2023-07-13T06:11:22;14.20;;;4.18;;
71734;SDS011;59577;52.122;5.406;2023-07-13T06:13:52;10.18;;;3.80;;
71734;SDS011;59577;52.122;5.406;2023-07-13T06:16:19;11.32;;;4.05;;
71734;SDS011;59577;52.122;5.406;2023-07-13T06:18:46;15.70;;;4.32;;
71734;SDS011;59577;52.122;5.406;2023-07-13T06:21:17;13.35;;;4.43;;
71734;SDS011;59577;52.122;5.406;2023-07-13T06:23:46;14.15;;;4.20;;
71734;SDS011;59577;52.122;5.406;2023-07-13T06:26:18;12.27;;;4.40;;
71734;SDS011;59577;52.122;5.406;2023-07-13T06:28:45;11.20;;;4.78;;
71734;SDS011;59577;52.122;5.406;2023-07-13T06:31:13;13.00;;;4.47;;
71734;SDS011;59577;52.122;5.406;2023-07-13T06:33:41;8.45;;;3.97;;
71734;SDS011;59577;52.122;5.406;2023-07-13T06:36:08;12.80;;;4.47;;
71734;SDS011;59577;52.122;5.406;2023-07-13T06:38:36;12.65;;;5.57;;
71734;SDS011;59577;52.122;5.406;2023-07-13T06:41:03;11.88;;;4.18;;
71734;SDS011;59577;52.122;5.406;2023-07-13T06:43:31;9.97;;;4.20;;
71734;SDS011;59577;52.122;5.406;2023-07-13T06:45:58;13.48;;;4.20;;
71734;SDS011;59577;52.122;5.406;2023-07-13T06:48:25;12.50;;;4.38;;
71734;SDS011;59577;52.122;5.406;2023-07-13T06:50:51;11.70;;;4.78;;
71734;SDS011;59577;52.122;5.406;2023-07-13T06:53:19;10.95;;;4.55;;
71734;SDS011;59577;52.122;5.406;2023-07-13T06:55:46;10.52;;;4.53;;
71734;SDS011;59577;52.122;5.406;2023-07-13T06:58:14;19.40;;;5.43;;
71734;SDS011;59577;52.122;5.406;2023-07-13T07:00:42;13.73;;;4.82;;
71734;SDS011;59577;52.122;5.406;2023-07-13T07:03:09;7.40;;;3.85;;
71734;SDS011;59577;52.122;5.406;2023-07-13T07:05:36;13.23;;;4.95;;
71734;SDS011;59577;52.122;5.406;2023-07-13T07:08:03;11.47;;;4.53;;
71734;SDS011;59577;52.122;5.406;2023-07-13T07:10:30;10.65;;;4.13;;
71734;SDS011;59577;52.122;5.406;2023-07-13T07:12:58;10.98;;;4.63;;
71734;SDS011;59577;52.122;5.406;2023-07-13T07:15:25;17.27;;;4.60;;
71734;SDS011;59577;52.122;5.406;2023-07-13T07:17:52;12.30;;;4.68;;
71734;SDS011;59577;52.122;5.406;2023-07-13T07:20:19;19.50;;;6.47;;
71734;SDS011;59577;52.122;5.406;2023-07-13T07:22:47;8.95;;;4.60;;
71734;SDS011;59577;52.122;5.406;2023-07-13T07:25:14;13.63;;;4.75;;
71734;SDS011;59577;52.122;5.406;2023-07-13T07:27:41;11.80;;;4.53;;
71734;SDS011;59577;52.122;5.406;2023-07-13T07:30:11;7.97;;;4.65;;
71734;SDS011;59577;52.122;5.406;2023-07-13T07:32:41;12.93;;;4.83;;
71734;SDS011;59577;52.122;5.406;2023-07-13T07:35:22;11.55;;;4.25;;
71734;SDS011;59577;52.122;5.406;2023-07-13T07:37:49;12.32;;;4.65;;
71734;SDS011;59577;52.122;5.406;2023-07-13T07:40:16;15.15;;;5.45;;
71734;SDS011;59577;52.122;5.406;2023-07-13T07:42:46;11.00;;;4.72;;
71734;SDS011;59577;52.122;5.406;2023-07-13T07:45:12;9.33;;;4.97;;
71734;SDS011;59577;52.122;5.406;2023-07-13T07:47:40;12.65;;;4.95;;
71734;SDS011;59577;52.122;5.406;2023-07-13T07:50:07;15.23;;;5.88;;
71734;SDS011;59577;52.122;5.406;2023-07-13T07:52:35;13.85;;;5.90;;
71734;SDS011;59577;52.122;5.406;2023-07-13T07:55:02;14.05;;;5.50;;
71734;SDS011;59577;52.122;5.406;2023-07-13T07:57:33;11.20;;;5.37;;
71734;SDS011;59577;52.122;5.406;2023-07-13T08:00:20;9.63;;;4.90;;
71734;SDS011;59577;52.122;5.406;2023-07-13T08:02:50;12.20;;;5.30;;
71734;SDS011;59577;52.122;5.406;2023-07-13T08:05:19;14.07;;;5.03;;
71734;SDS011;59577;52.122;5.406;2023-07-13T08:08:04;11.52;;;4.10;;
71734;SDS011;59577;52.122;5.406;2023-07-13T08:10:31;11.13;;;4.47;;
71734;SDS011;59577;52.122;5.406;2023-07-13T08:13:01;9.30;;;4.55;;
71734;SDS011;59577;52.122;5.406;2023-07-13T08:15:31;13.45;;;4.38;;
71734;SDS011;59577;52.122;5.406;2023-07-13T08:17:58;13.05;;;4.30;;
71734;SDS011;59577;52.122;5.406;2023-07-13T08:20:25;6.95;;;3.60;;
71734;SDS011;59577;52.122;5.406;2023-07-13T08:22:51;9.20;;;3.50;;
71734;SDS011;59577;52.122;5.406;2023-07-13T08:25:18;9.85;;;3.92;;
71734;SDS011;59577;52.122;5.406;2023-07-13T08:27:45;11.88;;;3.10;;
71734;SDS011;59577;52.122;5.406;2023-07-13T08:30:12;8.10;;;3.30;;
71734;SDS011;59577;52.122;5.406;2023-07-13T08:32:39;10.55;;;3.25;;
71734;SDS011;59577;52.122;5.406;2023-07-13T08:35:06;7.63;;;3.20;;
71734;SDS011;59577;52.122;5.406;2023-07-13T08:37:33;9.70;;;3.00;;
71734;SDS011;59577;52.122;5.406;2023-07-13T08:40:00;7.15;;;3.65;;
71734;SDS011;59577;52.122;5.406;2023-07-13T08:45:22;8.63;;;2.17;;
71734;SDS011;59577;52.122;5.406;2023-07-13T08:47:55;7.13;;;2.20;;
71734;SDS011;59577;52.122;5.406;2023-07-13T08:50:30;5.15;;;1.50;;
71734;SDS011;59577;52.122;5.406;2023-07-13T08:53:15;5.60;;;1.50;;
71734;SDS011;59577;52.122;5.406;2023-07-13T08:55:43;3.15;;;1.30;;
71734;SDS011;59577;52.122;5.406;2023-07-13T09:03:40;2.55;;;1.10;;
71734;SDS011;59577;52.122;5.406;2023-07-13T09:06:13;2.40;;;0.93;;
71734;SDS011;59577;52.122;5.406;2023-07-13T09:17:03;5.25;;;1.50;;
71734;SDS011;59577;52.122;5.406;2023-07-13T09:19:32;3.72;;;1.33;;
71734;SDS011;59577;52.122;5.406;2023-07-13T09:22:02;2.50;;;1.52;;
71734;SDS011;59577;52.122;5.406;2023-07-13T09:24:41;2.58;;;1.20;;
71734;SDS011;59577;52.122;5.406;2023-07-13T09:27:33;7.37;;;1.50;;
71734;SDS011;59577;52.122;5.406;2023-07-13T09:32:34;3.78;;;1.02;;
71734;SDS011;59577;52.122;5.406;2023-07-13T09:35:08;3.80;;;1.10;;
71734;SDS011;59577;52.122;5.406;2023-07-13T09:37:38;3.78;;;1.27;;
71734;SDS011;59577;52.122;5.406;2023-07-13T09:40:10;4.63;;;1.40;;
71734;SDS011;59577;52.122;5.406;2023-07-13T09:42:43;4.00;;;1.35;;
71734;SDS011;59577;52.122;5.406;2023-07-13T09:45:10;3.45;;;1.17;;
71734;SDS011;59577;52.122;5.406;2023-07-13T09:47:53;2.75;;;0.75;;
71734;SDS011;59577;52.122;5.406;2023-07-13T09:50:26;4.25;;;1.30;;
71734;SDS011;59577;52.122;5.406;2023-07-13T09:52:55;2.77;;;1.00;;
71734;SDS011;59577;52.122;5.406;2023-07-13T09:55:26;3.33;;;1.25;;
71734;SDS011;59577;52.122;5.406;2023-07-13T09:57:57;8.70;;;1.85;;
71734;SDS011;59577;52.122;5.406;2023-07-13T10:00:27;3.92;;;1.17;;
71734;SDS011;59577;52.122;5.406;2023-07-13T10:03:09;5.40;;;1.13;;
71734;SDS011;59577;52.122;5.406;2023-07-13T10:05:44;5.40;;;1.47;;
71734;SDS011;59577;52.122;5.406;2023-07-13T10:10:57;4.03;;;1.35;;
71734;SDS011;59577;52.122;5.406;2023-07-13T10:13:31;3.20;;;1.35;;
71734;SDS011;59577;52.122;5.406;2023-07-13T10:16:04;4.20;;;1.42;;
71734;SDS011;59577;52.122;5.406;2023-07-13T10:18:43;2.70;;;1.30;;
71734;SDS011;59577;52.122;5.406;2023-07-13T10:21:14;3.72;;;1.63;;
71734;SDS011;59577;52.122;5.406;2023-07-13T10:23:51;3.88;;;1.23;;
71734;SDS011;59577;52.122;5.406;2023-07-13T10:26:29;5.05;;;1.17;;
71734;SDS011;59577;52.122;5.406;2023-07-13T10:29:00;2.35;;;1.05;;
71734;SDS011;59577;52.122;5.406;2023-07-13T10:31:31;2.30;;;1.43;;
71734;SDS011;59577;52.122;5.406;2023-07-13T10:33:58;4.75;;;1.45;;
71734;SDS011;59577;52.122;5.406;2023-07-13T10:36:30;3.22;;;1.42;;
71734;SDS011;59577;52.122;5.406;2023-07-13T10:39:04;6.03;;;2.25;;
71734;SDS011;59577;52.122;5.406;2023-07-13T10:41:33;5.22;;;1.63;;
71734;SDS011;59577;52.122;5.406;2023-07-13T10:44:04;4.07;;;1.57;;
71734;SDS011;59577;52.122;5.406;2023-07-13T10:46:37;4.25;;;1.20;;
71734;SDS011;59577;52.122;5.406;2023-07-13T10:49:05;1.58;;;0.90;;
71734;SDS011;59577;52.122;5.406;2023-07-13T10:51:35;2.50;;;1.50;;
71734;SDS011;59577;52.122;5.406;2023-07-13T10:57:21;2.97;;;1.50;;
71734;SDS011;59577;52.122;5.406;2023-07-13T11:02:44;3.20;;;1.27;;
71734;SDS011;59577;52.122;5.406;2023-07-13T11:05:29;2.00;;;1.08;;
71734;SDS011;59577;52.122;5.406;2023-07-13T11:08:33;2.78;;;0.90;;
71734;SDS011;59577;52.122;5.406;2023-07-13T11:10:57;1.53;;;0.83;;
71734;SDS011;59577;52.122;5.406;2023-07-13T11:13:35;3.53;;;1.40;;
71734;SDS011;59577;52.122;5.406;2023-07-13T11:19:18;1.98;;;1.20;;
71734;SDS011;59577;52.122;5.406;2023-07-13T11:24:49;5.17;;;1.40;;
71734;SDS011;59577;52.122;5.406;2023-07-13T11:30:23;3.65;;;1.63;;
71734;SDS011;59577;52.122;5.406;2023-07-13T11:35:44;2.45;;;1.30;;
71734;SDS011;59577;52.122;5.406;2023-07-13T11:38:21;3.53;;;1.50;;
71734;SDS011;59577;52.122;5.406;2023-07-13T11:40:53;3.47;;;1.38;;
71734;SDS011;59577;52.122;5.406;2023-07-13T11:43:22;2.22;;;1.17;;
71734;SDS011;59577;52.122;5.406;2023-07-13T11:45:52;2.85;;;1.38;;
71734;SDS011;59577;52.122;5.406;2023-07-13T11:50:57;2.40;;;1.07;;
71734;SDS011;59577;52.122;5.406;2023-07-13T11:53:28;3.17;;;1.15;;
71734;SDS011;59577;52.122;5.406;2023-07-13T11:55:57;1.92;;;1.08;;
71734;SDS011;59577;52.122;5.406;2023-07-13T11:58:25;3.10;;;1.38;;
71734;SDS011;59577;52.122;5.406;2023-07-13T12:00:55;2.72;;;1.30;;
71734;SDS011;59577;52.122;5.406;2023-07-13T12:03:24;3.77;;;1.33;;
71734;SDS011;59577;52.122;5.406;2023-07-13T12:08:27;3.67;;;1.50;;
71734;SDS011;59577;52.122;5.406;2023-07-13T12:11:13;3.28;;;1.48;;
71734;SDS011;59577;52.122;5.406;2023-07-13T12:13:43;2.72;;;1.45;;
71734;SDS011;59577;52.122;5.406;2023-07-13T12:16:30;3.10;;;1.50;;
71734;SDS011;59577;52.122;5.406;2023-07-13T12:19:00;3.47;;;1.45;;
71734;SDS011;59577;52.122;5.406;2023-07-13T12:21:31;2.83;;;1.50;;
71734;SDS011;59577;52.122;5.406;2023-07-13T12:24:03;4.50;;;1.40;;
71734;SDS011;59577;52.122;5.406;2023-07-13T12:26:32;3.05;;;1.20;;
71734;SDS011;59577;52.122;5.406;2023-07-13T12:29:00;5.97;;;1.70;;
71734;SDS011;59577;52.122;5.406;2023-07-13T12:31:33;4.03;;;1.52;;
71734;SDS011;59577;52.122;5.406;2023-07-13T12:34:08;3.30;;;1.90;;
71734;SDS011;59577;52.122;5.406;2023-07-13T12:36:46;2.30;;;1.50;;
71734;SDS011;59577;52.122;5.406;2023-07-13T12:39:24;3.63;;;1.58;;
71734;SDS011;59577;52.122;5.406;2023-07-13T12:47:31;2.92;;;1.30;;
71734;SDS011;59577;52.122;5.406;2023-07-13T12:50:12;4.25;;;1.17;;
71734;SDS011;59577;52.122;5.406;2023-07-13T12:52:42;3.35;;;1.35;;
71734;SDS011;59577;52.122;5.406;2023-07-13T12:55:17;3.20;;;1.17;;
71734;SDS011;59577;52.122;5.406;2023-07-13T12:57:53;4.00;;;1.33;;
71734;SDS011;59577;52.122;5.406;2023-07-13T13:00:26;4.50;;;1.20;;
71734;SDS011;59577;52.122;5.406;2023-07-13T13:03:15;2.47;;;1.17;;
71734;SDS011;59577;52.122;5.406;2023-07-13T13:06:02;5.03;;;1.58;;
71734;SDS011;59577;52.122;5.406;2023-07-13T13:08:34;2.50;;;1.40;;
71734;SDS011;59577;52.122;5.406;2023-07-13T13:11:02;8.20;;;1.50;;
71734;SDS011;59577;52.122;5.406;2023-07-13T13:13:29;6.13;;;1.58;;
71734;SDS011;59577;52.122;5.406;2023-07-13T13:15:56;2.90;;;1.60;;
71734;SDS011;59577;52.122;5.406;2023-07-13T13:18:23;2.65;;;1.30;;
71734;SDS011;59577;52.122;5.406;2023-07-13T13:20:51;3.30;;;1.43;;
71734;SDS011;59577;52.122;5.406;2023-07-13T13:23:19;6.35;;;1.60;;
71734;SDS011;59577;52.122;5.406;2023-07-13T13:25:47;3.90;;;1.30;;
71734;SDS011;59577;52.122;5.406;2023-07-13T13:28:16;3.53;;;1.63;;
71734;SDS011;59577;52.122;5.406;2023-07-13T13:30:45;2.90;;;1.40;;
71734;SDS011;59577;52.122;5.406;2023-07-13T13:33:15;2.17;;;1.20;;
71734;SDS011;59577;52.122;5.406;2023-07-13T13:35:43;2.20;;;1.45;;
71734;SDS011;59577;52.122;5.406;2023-07-13T13:38:11;2.97;;;1.25;;
71734;SDS011;59577;52.122;5.406;2023-07-13T13:40:43;5.95;;;1.27;;
71734;SDS011;59577;52.122;5.406;2023-07-13T13:43:24;2.28;;;1.13;;
71734;SDS011;59577;52.122;5.406;2023-07-13T13:45:53;2.40;;;1.20;;
71734;SDS011;59577;52.122;5.406;2023-07-13T13:48:32;5.30;;;1.50;;
71734;SDS011;59577;52.122;5.406;2023-07-13T13:51:01;3.55;;;1.10;;
71734;SDS011;59577;52.122;5.406;2023-07-13T13:53:38;2.15;;;1.35;;
71734;SDS011;59577;52.122;5.406;2023-07-13T13:56:05;2.95;;;1.30;;
71734;SDS011;59577;52.122;5.406;2023-07-13T13:58:31;3.13;;;1.13;;
71734;SDS011;59577;52.122;5.406;2023-07-13T14:00:58;2.38;;;1.33;;
71734;SDS011;59577;52.122;5.406;2023-07-13T14:03:25;2.65;;;1.40;;
71734;SDS011;59577;52.122;5.406;2023-07-13T14:05:54;5.10;;;1.48;;
71734;SDS011;59577;52.122;5.406;2023-07-13T14:08:21;4.32;;;1.50;;
71734;SDS011;59577;52.122;5.406;2023-07-13T14:10:49;2.93;;;1.33;;
71734;SDS011;59577;52.122;5.406;2023-07-13T14:13:20;2.28;;;1.20;;
71734;SDS011;59577;52.122;5.406;2023-07-13T14:15:53;2.75;;;1.40;;
71734;SDS011;59577;52.122;5.406;2023-07-13T14:18:20;3.67;;;1.45;;
71734;SDS011;59577;52.122;5.406;2023-07-13T14:20:49;1.55;;;1.40;;
71734;SDS011;59577;52.122;5.406;2023-07-13T14:23:19;3.60;;;1.47;;
71734;SDS011;59577;52.122;5.406;2023-07-13T14:25:46;2.83;;;1.33;;
71734;SDS011;59577;52.122;5.406;2023-07-13T14:28:21;3.75;;;1.33;;
71734;SDS011;59577;52.122;5.406;2023-07-13T14:30:50;3.47;;;1.10;;
71734;SDS011;59577;52.122;5.406;2023-07-13T14:33:18;2.72;;;1.30;;
71734;SDS011;59577;52.122;5.406;2023-07-13T14:35:45;5.20;;;1.90;;
71734;SDS011;59577;52.122;5.406;2023-07-13T14:38:14;2.95;;;1.10;;
71734;SDS011;59577;52.122;5.406;2023-07-13T14:40:44;3.85;;;1.23;;
71734;SDS011;59577;52.122;5.406;2023-07-13T14:43:11;3.45;;;1.20;;
71734;SDS011;59577;52.122;5.406;2023-07-13T14:45:46;3.88;;;0.90;;
71734;SDS011;59577;52.122;5.406;2023-07-13T14:48:20;3.87;;;1.10;;
71734;SDS011;59577;52.122;5.406;2023-07-13T14:50:50;3.20;;;1.27;;
71734;SDS011;59577;52.122;5.406;2023-07-13T14:53:20;3.05;;;1.23;;
71734;SDS011;59577;52.122;5.406;2023-07-13T14:55:47;3.83;;;1.20;;
71734;SDS011;59577;52.122;5.406;2023-07-13T14:58:15;1.98;;;1.20;;
71734;SDS011;59577;52.122;5.406;2023-07-13T15:00:42;4.03;;;1.13;;
71734;SDS011;59577;52.122;5.406;2023-07-13T15:03:15;2.78;;;1.13;;
71734;SDS011;59577;52.122;5.406;2023-07-13T15:05:48;3.45;;;1.25;;
71734;SDS011;59577;52.122;5.406;2023-07-13T15:08:15;1.80;;;0.88;;
71734;SDS011;59577;52.122;5.406;2023-07-13T15:10:42;1.67;;;0.88;;
71734;SDS011;59577;52.122;5.406;2023-07-13T15:13:27;3.53;;;1.20;;
71734;SDS011;59577;52.122;5.406;2023-07-13T15:15:55;3.15;;;1.20;;
71734;SDS011;59577;52.122;5.406;2023-07-13T15:18:22;1.83;;;1.15;;
71734;SDS011;59577;52.122;5.406;2023-07-13T15:20:51;2.53;;;1.17;;
71734;SDS011;59577;52.122;5.406;2023-07-13T15:23:22;5.28;;;1.48;;
71734;SDS011;59577;52.122;5.406;2023-07-13T15:25:49;2.67;;;1.10;;
71734;SDS011;59577;52.122;5.406;2023-07-13T15:28:16;3.17;;;1.10;;
71734;SDS011;59577;52.122;5.406;2023-07-13T15:30:46;2.50;;;1.20;;
71734;SDS011;59577;52.122;5.406;2023-07-13T15:33:17;3.50;;;1.05;;
71734;SDS011;59577;52.122;5.406;2023-07-13T15:35:53;4.40;;;1.00;;
71734;SDS011;59577;52.122;5.406;2023-07-13T15:38:22;3.73;;;0.63;;
71734;SDS011;59577;52.122;5.406;2023-07-13T15:40:51;3.33;;;1.15;;
71734;SDS011;59577;52.122;5.406;2023-07-13T15:43:19;2.03;;;0.73;;
71734;SDS011;59577;52.122;5.406;2023-07-13T15:45:46;2.65;;;1.00;;
71734;SDS011;59577;52.122;5.406;2023-07-13T15:48:17;2.40;;;1.17;;
71734;SDS011;59577;52.122;5.406;2023-07-13T15:50:47;1.87;;;0.83;;
71734;SDS011;59577;52.122;5.406;2023-07-13T15:53:27;3.55;;;0.88;;